Bryan, TX (77801)

9:54 PM CST on February 13, 2016 (GMT -0600)
Woodland Hights | | Change Station
CLOSE
Current Station
Personal Weather Station
Location: Bryan, TX
Elevation: 335 ft
Nearby Weather Stations

Elev 335 ft 30.65 °N, 96.36 °W | Updated 9 minutes ago

Mostly Cloudy
Mostly Cloudy
61.4 °F
Feels Like 61.4 °F
N
6.0
Wind Variable Wind from South
Gusts 14.0 mph

Today
High -- | Low -- °F
--% Chance of Precip.
Yesterday
High -- | Low -- °F
Precip. -- in
Pressure 30.20 in
Visibility 10.0 miles
Clouds Mostly Cloudy 2000 ft
Mostly Cloudy 3200 ft
Dew Point 55 °F
Humidity 79%
Rainfall 0.00 in
Snow Depth Not available.
7:08 AM 6:11 PM
Waxing Crescent, 37% visible
SPECI KCLL 140330Z AUTO 14015KT 10SM BKN020 BKN032 16/12 A3020 RMK AO2 T01560117
Pressure 30.20 in
Visibility 10.0 miles
Clouds Mostly Cloudy 2000 ft
Mostly Cloudy 3200 ft
Dew Point 55 °F
Humidity 79%
Rainfall 0.00 in
Snow Depth Not available.
7:08 AM 6:11 PM
Waxing Crescent, 37% visible
SPECI KCLL 140330Z AUTO 14015KT 10SM BKN020 BKN032 16/12 A3020 RMK AO2 T01560117

10-Day Weather Forecast

Almanac

Astronomy

Feb. 13, 2016 Rise Set
Actual Time
Civil Twilight
Nautical Twilight
Astronomical Twilight
Moon
Length of Visible Light
Length of Day
Tomorrow will be .
, % of the Moon is Illuminated

Today's Extremes

State Highs State Lows

Community

WunderPhotos

Upload Photos

1,892,738 photos uploaded!

WunderBlog® & News

Nearby

Air Quality

  Air Quality AQ Index Pollutant
Not available.

Snow Depth

Station Depth Elevation

Earthquake Activity

City Distance Mag. Time & Date
Minimum magnitude displayed is 2.5.

Coastal Water Temperatures

Place Temperature

Stations

Nearby Weather Stations

Station Location Temp. Windchill Dew Point Humidity Wind Precip. Elev Updated Type
                   

Watches & Warnings

There are currently no watches in effect.